createdAt,value
2022-10-26T00:03:42.837Z,14.47
2022-10-26T00:08:45.564Z,13.93
2022-10-26T00:13:48.375Z,14.17
2022-10-26T00:18:50.638Z,14.33
2022-10-26T00:23:52.665Z,14.07
2022-10-26T00:28:55.824Z,12.77
2022-10-26T00:33:57.867Z,12.77
2022-10-26T00:38:59.912Z,12.30
2022-10-26T00:44:21.965Z,13.88
2022-10-26T00:49:24.328Z,12.85
2022-10-26T00:54:26.501Z,13.40
2022-10-26T00:59:28.504Z,13.27
2022-10-26T01:04:30.482Z,13.15
2022-10-26T01:09:33.125Z,11.82
2022-10-26T01:14:35.481Z,11.70
2022-10-26T01:19:57.614Z,11.93
2022-10-26T01:25:29.281Z,12.35
2022-10-26T01:30:34.059Z,12.55
2022-10-26T01:35:44.786Z,14.25
2022-10-26T01:40:53.093Z,13.13
2022-10-26T01:45:56.713Z,11.75
2022-10-26T01:50:59.729Z,13.75
2022-10-26T01:56:02.507Z,13.45
2022-10-26T02:01:34.453Z,11.60
2022-10-26T02:06:39.493Z,13.65
2022-10-26T02:11:52.118Z,12.77
2022-10-26T02:17:04.650Z,13.10
2022-10-26T02:22:31.705Z,13.88
2022-10-26T02:27:39.054Z,13.35
2022-10-26T02:32:45.384Z,12.85
2022-10-26T02:37:49.283Z,11.82
2022-10-26T02:42:53.160Z,14.15
2022-10-26T02:48:03.351Z,13.32
2022-10-26T02:53:25.448Z,12.55
2022-10-26T02:58:31.101Z,13.45
2022-10-26T03:03:33.180Z,13.35
2022-10-26T03:08:35.231Z,16.42
2022-10-26T03:13:37.213Z,19.83
2022-10-26T03:18:39.285Z,19.98
2022-10-26T03:23:42.204Z,21.33
2022-10-26T03:28:44.113Z,21.47
2022-10-26T03:33:46.270Z,25.90
2022-10-26T03:38:48.164Z,26.02
2022-10-26T03:43:50.168Z,25.70
2022-10-26T03:48:58.252Z,22.65
2022-10-26T03:54:01.737Z,28.55
2022-10-26T03:59:04.167Z,23.60
2022-10-26T04:04:06.447Z,24.77
2022-10-26T04:09:08.564Z,20.98
2022-10-26T04:14:10.525Z,18.70
2022-10-26T04:19:12.434Z,19.55
2022-10-26T04:24:14.711Z,18.52
2022-10-26T04:29:16.746Z,19.50
2022-10-26T04:34:18.952Z,17.77
2022-10-26T04:39:20.884Z,17.92
2022-10-26T04:44:23.065Z,21.42
2022-10-26T04:49:25.254Z,20.63
2022-10-26T04:54:27.176Z,21.05
2022-10-26T04:59:29.091Z,20.83
2022-10-26T05:04:31.269Z,27.55
2022-10-26T05:09:33.338Z,24.92
2022-10-26T05:14:35.339Z,27.67
2022-10-26T05:19:37.489Z,22.35
2022-10-26T05:24:39.524Z,24.95
2022-10-26T05:29:41.643Z,22.00
2022-10-26T05:34:44.130Z,23.02
2022-10-26T05:39:46.328Z,24.10
2022-10-26T05:44:48.573Z,26.85
2022-10-26T05:49:50.556Z,26.67
2022-10-26T05:54:52.790Z,22.73
2022-10-26T05:59:55.025Z,27.15
2022-10-26T06:05:05.171Z,31.15
2022-10-26T06:10:07.939Z,27.60
2022-10-26T06:15:16.381Z,26.40
2022-10-26T06:20:50.851Z,25.10
2022-10-26T06:26:26.856Z,22.50
2022-10-26T06:31:28.956Z,21.65
2022-10-26T06:36:32.097Z,22.85
2022-10-26T06:41:35.802Z,21.33
2022-10-26T06:46:46.283Z,20.83
2022-10-26T06:51:57.515Z,21.13
2022-10-26T06:56:59.893Z,20.08
2022-10-26T07:02:05.578Z,19.88
2022-10-26T07:07:11.949Z,21.05
2022-10-26T07:12:13.979Z,24.40
2022-10-26T07:17:17.007Z,21.35
2022-10-26T07:22:18.925Z,23.25
2022-10-26T07:27:21.005Z,26.75
2022-10-26T07:32:23.216Z,29.70
2022-10-26T07:37:25.311Z,21.77
2022-10-26T07:42:31.932Z,17.13
2022-10-26T07:47:34.040Z,16.38
2022-10-26T07:52:36.990Z,13.77
2022-10-26T07:57:39.405Z,14.63
2022-10-26T08:02:41.677Z,14.27
2022-10-26T08:07:44.876Z,14.63
2022-10-26T08:12:46.907Z,13.50
2022-10-26T08:17:49.255Z,13.35
2022-10-26T08:22:52.848Z,13.82
2022-10-26T08:33:05.528Z,13.52
2022-10-26T08:38:07.652Z,14.15
2022-10-26T08:43:25.377Z,13.55
2022-10-26T08:48:40.661Z,13.85
2022-10-26T08:54:00.565Z,13.63
2022-10-26T08:59:28.519Z,13.38
2022-10-26T09:04:32.269Z,13.02
2022-10-26T09:09:58.930Z,12.13
2022-10-26T09:15:25.637Z,12.93
2022-10-26T09:20:49.912Z,11.88
2022-10-26T09:26:00.816Z,11.32
2022-10-26T09:31:04.548Z,11.10
2022-10-26T09:36:16.924Z,10.15
2022-10-26T09:41:37.252Z,9.37
2022-10-26T09:47:12.985Z,11.40
2022-10-26T09:52:16.166Z,12.13
2022-10-26T09:57:20.730Z,13.07
2022-10-26T10:02:47.172Z,13.20
2022-10-26T10:07:49.601Z,12.60
2022-10-26T10:12:52.968Z,12.00
2022-10-26T10:17:58.626Z,10.20
2022-10-26T10:23:03.721Z,9.25
2022-10-26T10:28:22.918Z,10.05
2022-10-26T10:33:41.457Z,9.77
2022-10-26T10:38:45.675Z,8.13
2022-10-26T10:43:51.804Z,7.78
2022-10-26T10:49:02.630Z,7.63
2022-10-26T10:54:05.958Z,6.85
2022-10-26T10:59:18.313Z,7.05
2022-10-26T11:04:45.861Z,7.43
2022-10-26T11:09:49.626Z,7.55
2022-10-26T11:15:12.656Z,7.93
2022-10-26T11:20:24.928Z,7.15
2022-10-26T11:25:35.718Z,7.35
2022-10-26T11:30:44.055Z,6.85
2022-10-26T11:35:50.058Z,6.60
2022-10-26T11:41:25.083Z,6.88
2022-10-26T11:46:42.605Z,6.22
2022-10-26T11:52:04.853Z,5.97
2022-10-26T11:57:07.772Z,15.45
2022-10-26T12:02:17.997Z,7.15
2022-10-26T12:07:29.084Z,6.40
2022-10-26T12:13:06.688Z,6.60
2022-10-26T12:18:54.064Z,6.82
2022-10-26T12:23:56.737Z,5.20
2022-10-26T12:29:01.711Z,5.30
2022-10-26T12:34:25.344Z,5.32
2022-10-26T12:39:37.011Z,6.82
2022-10-26T12:45:00.160Z,5.75
2022-10-26T12:50:08.382Z,5.10
2022-10-26T12:55:18.141Z,6.00
2022-10-26T13:00:27.856Z,5.75
2022-10-26T13:05:39.066Z,6.05
2022-10-26T13:11:01.125Z,5.78
2022-10-26T13:16:03.945Z,6.13
2022-10-26T13:21:12.067Z,7.57
2022-10-26T13:26:18.255Z,7.18
2022-10-26T13:31:31.227Z,7.25
2022-10-26T13:36:36.752Z,6.85
2022-10-26T13:41:42.520Z,7.53
2022-10-26T13:46:46.735Z,7.22
2022-10-26T13:51:52.262Z,7.10
2022-10-26T13:57:28.070Z,7.80
2022-10-26T14:02:32.964Z,8.25
2022-10-26T14:12:51.294Z,8.70
2022-10-26T14:17:55.523Z,8.43
2022-10-26T14:22:57.880Z,8.27
2022-10-26T14:28:00.056Z,9.90
2022-10-26T14:33:19.821Z,11.90
2022-10-26T14:38:27.762Z,12.15
2022-10-26T14:43:31.063Z,11.25
2022-10-26T14:48:34.872Z,9.50
2022-10-26T14:53:41.391Z,9.07
2022-10-26T14:58:44.408Z,17.23
2022-10-26T15:03:48.368Z,18.33
2022-10-26T15:08:57.191Z,21.63
2022-10-26T15:14:00.422Z,21.27
2022-10-26T15:19:10.884Z,21.33
2022-10-26T15:24:38.982Z,20.52
2022-10-26T15:29:46.734Z,26.45
2022-10-26T15:35:19.555Z,40.60
2022-10-26T15:40:22.236Z,31.67
2022-10-26T15:45:34.207Z,61.23
2022-10-26T15:50:37.819Z,55.58
2022-10-26T15:55:42.937Z,82.43
2022-10-26T16:00:45.481Z,69.95
2022-10-26T16:05:51.582Z,49.65
2022-10-26T16:10:53.856Z,41.90
2022-10-26T16:15:55.958Z,37.28
2022-10-26T16:20:58.007Z,55.83
2022-10-26T16:26:00.164Z,46.42
2022-10-26T16:31:08.661Z,46.38
2022-10-26T16:36:12.810Z,41.15
2022-10-26T16:41:17.090Z,35.28
2022-10-26T16:46:21.358Z,40.25
2022-10-26T16:51:28.523Z,50.63
2022-10-26T16:56:30.628Z,60.35
2022-10-26T17:01:33.074Z,66.05
2022-10-26T17:06:35.255Z,67.57
2022-10-26T17:11:37.536Z,64.80
2022-10-26T17:16:39.524Z,66.63
2022-10-26T17:21:43.579Z,60.05
2022-10-26T17:26:45.690Z,63.67
2022-10-26T17:31:47.697Z,79.75
2022-10-26T17:36:49.777Z,65.85
2022-10-26T17:41:52.020Z,84.28
2022-10-26T17:46:53.957Z,91.15
2022-10-26T17:51:55.967Z,117.57
2022-10-26T17:56:58.741Z,108.32
2022-10-26T18:02:01.034Z,103.65
2022-10-26T18:07:04.234Z,188.43
2022-10-26T18:12:06.581Z,106.05
2022-10-26T18:17:08.753Z,127.70
2022-10-26T18:22:11.020Z,124.15
2022-10-26T18:27:13.511Z,123.75
2022-10-26T18:32:15.521Z,120.72
2022-10-26T18:37:17.796Z,129.60
2022-10-26T18:42:19.797Z,106.13
2022-10-26T18:47:21.773Z,114.63
2022-10-26T18:52:23.958Z,121.35
2022-10-26T18:57:28.480Z,125.35
2022-10-26T19:02:30.649Z,112.05
2022-10-26T19:07:33.182Z,123.50
2022-10-26T19:12:35.297Z,130.40
2022-10-26T19:17:37.322Z,128.35
2022-10-26T19:22:40.873Z,124.45
2022-10-26T19:27:51.709Z,129.32
2022-10-26T19:33:01.073Z,145.63
2022-10-26T19:38:05.556Z,147.93
2022-10-26T19:43:07.536Z,132.88
2022-10-26T19:48:09.485Z,133.35
2022-10-26T19:53:11.749Z,137.32
2022-10-26T19:58:14.161Z,136.13
2022-10-26T20:03:16.678Z,135.43
2022-10-26T20:08:19.758Z,136.88
2022-10-26T20:13:22.401Z,128.60
2022-10-26T20:18:24.526Z,133.02
2022-10-26T20:23:26.715Z,145.27
2022-10-26T20:28:29.768Z,153.02
2022-10-26T20:33:38.117Z,139.85
2022-10-26T20:38:40.629Z,141.73
2022-10-26T20:43:42.985Z,110.95
2022-10-26T20:48:45.338Z,84.93
2022-10-26T20:53:53.577Z,85.25
2022-10-26T20:58:58.421Z,111.43
2022-10-26T21:04:02.199Z,128.75
2022-10-26T21:09:04.256Z,136.63
2022-10-26T21:14:06.485Z,143.52
2022-10-26T21:19:08.509Z,152.73
2022-10-26T21:24:10.762Z,145.00
2022-10-26T21:29:12.927Z,161.32
2022-10-26T21:34:14.876Z,147.73
2022-10-26T21:39:16.886Z,151.73
2022-10-26T21:44:40.315Z,149.70
2022-10-26T21:54:50.093Z,117.83
2022-10-26T21:59:58.566Z,101.40
2022-10-26T22:05:00.564Z,88.40
2022-10-26T22:10:16.978Z,81.97
2022-10-26T22:15:18.937Z,71.43
2022-10-26T22:20:20.892Z,67.30
2022-10-26T22:25:22.879Z,65.95
2022-10-26T22:30:25.120Z,96.38
2022-10-26T22:35:30.293Z,54.33
2022-10-26T22:40:32.304Z,57.63
2022-10-26T22:45:34.278Z,54.47
2022-10-26T22:50:38.394Z,61.10
2022-10-26T22:55:42.068Z,51.47
2022-10-26T23:00:46.044Z,49.22
2022-10-26T23:10:50.405Z,51.20
2022-10-26T23:15:52.641Z,42.55
2022-10-26T23:20:54.857Z,55.92
2022-10-26T23:26:04.593Z,59.58
2022-10-26T23:31:06.995Z,55.00
2022-10-26T23:36:09.025Z,53.20
2022-10-26T23:41:12.969Z,63.55
2022-10-26T23:46:15.494Z,53.92
2022-10-26T23:51:17.605Z,46.58
2022-10-26T23:56:19.634Z,45.58
